sensor_id;sensor_type;location;lat;lon;timestamp;temperature;humidity
53208;DHT22;39093;52.788;6.940;2022-11-15T00:00:56;7.40;99.90
53208;DHT22;39093;52.788;6.940;2022-11-15T00:03:26;7.30;99.90
53208;DHT22;39093;52.788;6.940;2022-11-15T00:05:53;7.40;99.90
53208;DHT22;39093;52.788;6.940;2022-11-15T00:08:20;7.40;99.90
53208;DHT22;39093;52.788;6.940;2022-11-15T00:10:57;7.40;99.90
53208;DHT22;39093;52.788;6.940;2022-11-15T00:13:24;7.50;99.90
53208;DHT22;39093;52.788;6.940;2022-11-15T00:15:51;7.50;99.90
53208;DHT22;39093;52.788;6.940;2022-11-15T00:18:18;7.50;99.90
53208;DHT22;39093;52.788;6.940;2022-11-15T00:20:45;7.60;99.90
53208;DHT22;39093;52.788;6.940;2022-11-15T00:23:12;7.70;99.90
53208;DHT22;39093;52.788;6.940;2022-11-15T00:25:39;7.80;99.90
53208;DHT22;39093;52.788;6.940;2022-11-15T00:28:06;7.70;99.90
53208;DHT22;39093;52.788;6.940;2022-11-15T00:30:33;7.70;99.90
53208;DHT22;39093;52.788;6.940;2022-11-15T00:33:02;7.70;99.90
53208;DHT22;39093;52.788;6.940;2022-11-15T00:35:31;7.70;99.90
53208;DHT22;39093;52.788;6.940;2022-11-15T00:37:59;7.70;99.90
53208;DHT22;39093;52.788;6.940;2022-11-15T00:40:26;7.70;99.90
53208;DHT22;39093;52.788;6.940;2022-11-15T00:42:53;7.80;99.90
53208;DHT22;39093;52.788;6.940;2022-11-15T00:45:20;7.80;99.90
53208;DHT22;39093;52.788;6.940;2022-11-15T00:47:48;7.80;99.90
53208;DHT22;39093;52.788;6.940;2022-11-15T00:50:15;7.80;99.90
53208;DHT22;39093;52.788;6.940;2022-11-15T00:52:42;7.80;99.90
53208;DHT22;39093;52.788;6.940;2022-11-15T00:55:15;7.80;99.90
53208;DHT22;39093;52.788;6.940;2022-11-15T00:57:42;7.80;99.90
53208;DHT22;39093;52.788;6.940;2022-11-15T01:00:10;7.90;99.90
53208;DHT22;39093;52.788;6.940;2022-11-15T01:02:37;7.80;99.90
53208;DHT22;39093;52.788;6.940;2022-11-15T01:05:04;7.90;99.90
53208;DHT22;39093;52.788;6.940;2022-11-15T01:07:31;7.90;99.90
53208;DHT22;39093;52.788;6.940;2022-11-15T01:09:58;7.90;99.90
53208;DHT22;39093;52.788;6.940;2022-11-15T01:12:25;7.90;99.90
53208;DHT22;39093;52.788;6.940;2022-11-15T01:14:52;8.00;99.90
53208;DHT22;39093;52.788;6.940;2022-11-15T01:17:18;7.90;99.90
53208;DHT22;39093;52.788;6.940;2022-11-15T01:19:45;7.90;99.90
53208;DHT22;39093;52.788;6.940;2022-11-15T01:22:12;8.00;99.90
53208;DHT22;39093;52.788;6.940;2022-11-15T01:24:39;8.00;99.90
53208;DHT22;39093;52.788;6.940;2022-11-15T01:27:06;8.00;99.90
53208;DHT22;39093;52.788;6.940;2022-11-15T01:29:33;8.00;99.90
53208;DHT22;39093;52.788;6.940;2022-11-15T01:32:00;8.00;99.90
53208;DHT22;39093;52.788;6.940;2022-11-15T01:34:27;8.00;99.90
53208;DHT22;39093;52.788;6.940;2022-11-15T01:36:54;8.00;99.90
53208;DHT22;39093;52.788;6.940;2022-11-15T01:39:20;7.90;99.90
53208;DHT22;39093;52.788;6.940;2022-11-15T01:41:47;8.00;99.90
53208;DHT22;39093;52.788;6.940;2022-11-15T01:47:03;8.00;99.90
53208;DHT22;39093;52.788;6.940;2022-11-15T01:49:33;8.00;99.90
53208;DHT22;39093;52.788;6.940;2022-11-15T01:52:05;8.10;99.90
53208;DHT22;39093;52.788;6.940;2022-11-15T01:54:32;8.00;99.90
53208;DHT22;39093;52.788;6.940;2022-11-15T01:57:02;8.00;99.90
53208;DHT22;39093;52.788;6.940;2022-11-15T01:59:30;8.00;99.90
53208;DHT22;39093;52.788;6.940;2022-11-15T02:01:57;8.00;99.90
53208;DHT22;39093;52.788;6.940;2022-11-15T02:04:26;8.00;99.90
53208;DHT22;39093;52.788;6.940;2022-11-15T02:06:54;8.10;99.90
53208;DHT22;39093;52.788;6.940;2022-11-15T02:09:21;8.10;99.90
53208;DHT22;39093;52.788;6.940;2022-11-15T02:11:50;8.10;99.90
53208;DHT22;39093;52.788;6.940;2022-11-15T02:14:19;8.10;99.90
53208;DHT22;39093;52.788;6.940;2022-11-15T02:27:57;8.10;99.90
53208;DHT22;39093;52.788;6.940;2022-11-15T02:30:34;8.10;99.90
53208;DHT22;39093;52.788;6.940;2022-11-15T02:36:15;8.20;99.90
53208;DHT22;39093;52.788;6.940;2022-11-15T02:42:06;8.20;99.90
53208;DHT22;39093;52.788;6.940;2022-11-15T02:44:56;8.20;99.90
53208;DHT22;39093;52.788;6.940;2022-11-15T02:47:26;8.20;99.90
53208;DHT22;39093;52.788;6.940;2022-11-15T02:49:58;8.20;99.90
53208;DHT22;39093;52.788;6.940;2022-11-15T02:52:25;8.20;99.90
53208;DHT22;39093;52.788;6.940;2022-11-15T02:54:58;8.20;99.90
53208;DHT22;39093;52.788;6.940;2022-11-15T02:58:04;8.20;99.90
53208;DHT22;39093;52.788;6.940;2022-11-15T03:00:35;8.30;99.90
53208;DHT22;39093;52.788;6.940;2022-11-15T03:03:18;8.30;99.90
53208;DHT22;39093;52.788;6.940;2022-11-15T03:12:12;8.30;99.90
53208;DHT22;39093;52.788;6.940;2022-11-15T03:14:51;8.30;99.90
53208;DHT22;39093;52.788;6.940;2022-11-15T03:17:29;8.30;99.90
53208;DHT22;39093;52.788;6.940;2022-11-15T03:19:58;8.30;99.90
53208;DHT22;39093;52.788;6.940;2022-11-15T03:22:29;8.30;99.90
53208;DHT22;39093;52.788;6.940;2022-11-15T03:25:00;8.40;99.90
53208;DHT22;39093;52.788;6.940;2022-11-15T03:27:33;8.50;99.90
53208;DHT22;39093;52.788;6.940;2022-11-15T03:30:06;8.40;99.90
53208;DHT22;39093;52.788;6.940;2022-11-15T03:32:39;8.40;99.90
53208;DHT22;39093;52.788;6.940;2022-11-15T03:35:10;8.50;99.90
53208;DHT22;39093;52.788;6.940;2022-11-15T03:37:45;8.50;99.90
53208;DHT22;39093;52.788;6.940;2022-11-15T03:40:14;8.40;99.90
53208;DHT22;39093;52.788;6.940;2022-11-15T03:43:05;8.40;99.90
53208;DHT22;39093;52.788;6.940;2022-11-15T03:45:40;8.50;99.90
53208;DHT22;39093;52.788;6.940;2022-11-15T03:48:30;8.50;99.90
53208;DHT22;39093;52.788;6.940;2022-11-15T03:51:00;8.50;99.90
53208;DHT22;39093;52.788;6.940;2022-11-15T03:53:28;8.50;99.90
53208;DHT22;39093;52.788;6.940;2022-11-15T03:55:55;8.50;99.90
53208;DHT22;39093;52.788;6.940;2022-11-15T03:58:22;8.50;99.90
53208;DHT22;39093;52.788;6.940;2022-11-15T04:00:48;8.60;99.90
53208;DHT22;39093;52.788;6.940;2022-11-15T04:03:15;8.60;99.90
53208;DHT22;39093;52.788;6.940;2022-11-15T04:05:42;8.50;99.90
53208;DHT22;39093;52.788;6.940;2022-11-15T04:08:09;8.50;99.90
53208;DHT22;39093;52.788;6.940;2022-11-15T04:10:36;8.60;99.90
53208;DHT22;39093;52.788;6.940;2022-11-15T04:13:03;8.60;99.90
53208;DHT22;39093;52.788;6.940;2022-11-15T04:15:30;8.70;99.90
53208;DHT22;39093;52.788;6.940;2022-11-15T04:17:57;8.70;99.90
53208;DHT22;39093;52.788;6.940;2022-11-15T04:20:29;8.70;99.90
53208;DHT22;39093;52.788;6.940;2022-11-15T04:23:16;8.70;99.90
53208;DHT22;39093;52.788;6.940;2022-11-15T04:26:05;8.70;99.90
53208;DHT22;39093;52.788;6.940;2022-11-15T04:28:34;8.80;99.90
53208;DHT22;39093;52.788;6.940;2022-11-15T04:31:00;8.70;99.90
53208;DHT22;39093;52.788;6.940;2022-11-15T04:33:27;8.70;99.90
53208;DHT22;39093;52.788;6.940;2022-11-15T04:35:54;8.70;99.90
53208;DHT22;39093;52.788;6.940;2022-11-15T04:38:40;8.70;99.90
53208;DHT22;39093;52.788;6.940;2022-11-15T04:41:07;8.80;99.90
53208;DHT22;39093;52.788;6.940;2022-11-15T04:43:33;8.80;99.90
53208;DHT22;39093;52.788;6.940;2022-11-15T04:46:01;8.80;99.90
53208;DHT22;39093;52.788;6.940;2022-11-15T04:48:27;8.90;99.90
53208;DHT22;39093;52.788;6.940;2022-11-15T04:50:54;8.80;99.90
53208;DHT22;39093;52.788;6.940;2022-11-15T04:53:21;8.80;99.90
53208;DHT22;39093;52.788;6.940;2022-11-15T04:55:48;8.90;99.90
53208;DHT22;39093;52.788;6.940;2022-11-15T04:58:15;8.90;99.90
53208;DHT22;39093;52.788;6.940;2022-11-15T05:00:41;8.90;99.90
53208;DHT22;39093;52.788;6.940;2022-11-15T05:03:09;8.90;99.90
53208;DHT22;39093;52.788;6.940;2022-11-15T05:05:57;8.90;99.90
53208;DHT22;39093;52.788;6.940;2022-11-15T05:08:24;8.90;99.90
53208;DHT22;39093;52.788;6.940;2022-11-15T05:10:51;8.90;99.90
53208;DHT22;39093;52.788;6.940;2022-11-15T05:13:18;9.00;99.90
53208;DHT22;39093;52.788;6.940;2022-11-15T05:15:44;9.00;99.90
53208;DHT22;39093;52.788;6.940;2022-11-15T05:18:11;9.00;99.90
53208;DHT22;39093;52.788;6.940;2022-11-15T05:20:38;9.00;99.90
53208;DHT22;39093;52.788;6.940;2022-11-15T05:23:05;9.00;99.90
53208;DHT22;39093;52.788;6.940;2022-11-15T05:25:32;9.10;99.90
53208;DHT22;39093;52.788;6.940;2022-11-15T05:27:59;9.10;99.90
53208;DHT22;39093;52.788;6.940;2022-11-15T05:30:26;9.10;99.90
53208;DHT22;39093;52.788;6.940;2022-11-15T05:32:53;9.10;99.90
53208;DHT22;39093;52.788;6.940;2022-11-15T05:35:34;9.10;99.90
53208;DHT22;39093;52.788;6.940;2022-11-15T05:38:03;9.20;99.90
53208;DHT22;39093;52.788;6.940;2022-11-15T05:40:30;9.10;99.90
53208;DHT22;39093;52.788;6.940;2022-11-15T05:42:58;9.20;99.90
53208;DHT22;39093;52.788;6.940;2022-11-15T05:45:27;9.20;99.90
53208;DHT22;39093;52.788;6.940;2022-11-15T05:47:56;9.20;99.90
53208;DHT22;39093;52.788;6.940;2022-11-15T05:50:24;9.20;99.90
53208;DHT22;39093;52.788;6.940;2022-11-15T05:52:52;9.30;99.90
53208;DHT22;39093;52.788;6.940;2022-11-15T05:55:18;9.30;99.90
53208;DHT22;39093;52.788;6.940;2022-11-15T05:57:45;9.40;99.90
53208;DHT22;39093;52.788;6.940;2022-11-15T06:00:12;9.40;99.90
53208;DHT22;39093;52.788;6.940;2022-11-15T06:02:39;9.40;99.90
53208;DHT22;39093;52.788;6.940;2022-11-15T06:05:06;9.50;99.90
53208;DHT22;39093;52.788;6.940;2022-11-15T06:07:33;9.50;99.90
53208;DHT22;39093;52.788;6.940;2022-11-15T06:10:00;9.60;99.90
53208;DHT22;39093;52.788;6.940;2022-11-15T06:12:27;9.60;99.90
53208;DHT22;39093;52.788;6.940;2022-11-15T06:14:54;9.70;99.90
53208;DHT22;39093;52.788;6.940;2022-11-15T06:17:21;9.70;99.90
53208;DHT22;39093;52.788;6.940;2022-11-15T06:19:48;9.70;99.90
53208;DHT22;39093;52.788;6.940;2022-11-15T06:22:14;9.80;99.90
53208;DHT22;39093;52.788;6.940;2022-11-15T06:24:41;9.90;99.90
53208;DHT22;39093;52.788;6.940;2022-11-15T06:27:13;10.00;99.90
53208;DHT22;39093;52.788;6.940;2022-11-15T06:29:40;10.00;99.90
53208;DHT22;39093;52.788;6.940;2022-11-15T06:32:06;10.00;99.90
53208;DHT22;39093;52.788;6.940;2022-11-15T06:34:33;10.00;99.90
53208;DHT22;39093;52.788;6.940;2022-11-15T06:37:02;10.10;99.90
53208;DHT22;39093;52.788;6.940;2022-11-15T06:39:29;10.10;99.90
53208;DHT22;39093;52.788;6.940;2022-11-15T06:41:56;10.10;99.90
53208;DHT22;39093;52.788;6.940;2022-11-15T06:44:23;10.20;99.90
53208;DHT22;39093;52.788;6.940;2022-11-15T06:46:49;10.10;99.90
53208;DHT22;39093;52.788;6.940;2022-11-15T06:49:16;10.20;99.90
53208;DHT22;39093;52.788;6.940;2022-11-15T06:51:43;10.20;99.90
53208;DHT22;39093;52.788;6.940;2022-11-15T06:54:10;10.30;99.90
53208;DHT22;39093;52.788;6.940;2022-11-15T06:56:37;10.30;99.90
53208;DHT22;39093;52.788;6.940;2022-11-15T06:59:03;10.30;99.90
53208;DHT22;39093;52.788;6.940;2022-11-15T07:01:30;10.30;99.90
53208;DHT22;39093;52.788;6.940;2022-11-15T07:03:57;10.40;99.90
53208;DHT22;39093;52.788;6.940;2022-11-15T07:06:24;10.40;99.90
53208;DHT22;39093;52.788;6.940;2022-11-15T07:08:51;10.30;99.90
53208;DHT22;39093;52.788;6.940;2022-11-15T07:11:18;10.30;99.90
53208;DHT22;39093;52.788;6.940;2022-11-15T07:13:44;10.40;99.90
53208;DHT22;39093;52.788;6.940;2022-11-15T07:16:11;10.40;99.90
53208;DHT22;39093;52.788;6.940;2022-11-15T07:18:39;10.40;99.90
53208;DHT22;39093;52.788;6.940;2022-11-15T07:21:09;10.40;99.90
53208;DHT22;39093;52.788;6.940;2022-11-15T07:23:40;10.50;99.90
53208;DHT22;39093;52.788;6.940;2022-11-15T07:26:07;10.40;99.90
53208;DHT22;39093;52.788;6.940;2022-11-15T07:28:34;10.50;99.90
53208;DHT22;39093;52.788;6.940;2022-11-15T07:31:06;10.50;99.90
53208;DHT22;39093;52.788;6.940;2022-11-15T07:33:34;10.50;99.90
53208;DHT22;39093;52.788;6.940;2022-11-15T07:36:03;10.50;99.90
53208;DHT22;39093;52.788;6.940;2022-11-15T07:38:30;10.50;99.90
53208;DHT22;39093;52.788;6.940;2022-11-15T07:40:59;10.50;99.90
53208;DHT22;39093;52.788;6.940;2022-11-15T07:43:26;10.60;99.90
53208;DHT22;39093;52.788;6.940;2022-11-15T07:45:57;10.60;99.90
53208;DHT22;39093;52.788;6.940;2022-11-15T07:48:25;10.60;99.90
53208;DHT22;39093;52.788;6.940;2022-11-15T07:51:14;10.60;99.90
53208;DHT22;39093;52.788;6.940;2022-11-15T07:53:45;10.60;99.90
53208;DHT22;39093;52.788;6.940;2022-11-15T07:56:12;10.60;99.90
53208;DHT22;39093;52.788;6.940;2022-11-15T07:58:39;10.70;99.90
53208;DHT22;39093;52.788;6.940;2022-11-15T08:01:15;10.70;99.90
53208;DHT22;39093;52.788;6.940;2022-11-15T08:03:42;10.70;99.90
53208;DHT22;39093;52.788;6.940;2022-11-15T08:06:08;10.70;99.90
53208;DHT22;39093;52.788;6.940;2022-11-15T08:08:35;10.80;99.90
53208;DHT22;39093;52.788;6.940;2022-11-15T08:11:02;10.80;99.90
53208;DHT22;39093;52.788;6.940;2022-11-15T08:13:29;10.80;99.90
53208;DHT22;39093;52.788;6.940;2022-11-15T08:15:58;10.80;99.90
53208;DHT22;39093;52.788;6.940;2022-11-15T08:18:25;10.80;99.90
53208;DHT22;39093;52.788;6.940;2022-11-15T08:20:52;10.80;99.90
53208;DHT22;39093;52.788;6.940;2022-11-15T08:23:19;10.90;99.90
53208;DHT22;39093;52.788;6.940;2022-11-15T08:25:46;10.80;99.90
53208;DHT22;39093;52.788;6.940;2022-11-15T08:28:12;10.90;99.90
53208;DHT22;39093;52.788;6.940;2022-11-15T08:30:41;10.90;99.90
53208;DHT22;39093;52.788;6.940;2022-11-15T08:33:13;10.90;99.90
53208;DHT22;39093;52.788;6.940;2022-11-15T08:35:41;10.90;99.90
53208;DHT22;39093;52.788;6.940;2022-11-15T08:38:09;10.90;99.90
53208;DHT22;39093;52.788;6.940;2022-11-15T08:40:37;10.90;99.90
53208;DHT22;39093;52.788;6.940;2022-11-15T08:43:04;10.90;99.90
53208;DHT22;39093;52.788;6.940;2022-11-15T08:45:31;10.90;99.90
53208;DHT22;39093;52.788;6.940;2022-11-15T08:48:01;10.90;99.90
53208;DHT22;39093;52.788;6.940;2022-11-15T08:50:29;11.00;99.90
53208;DHT22;39093;52.788;6.940;2022-11-15T08:52:56;11.00;99.90
53208;DHT22;39093;52.788;6.940;2022-11-15T08:55:23;11.00;99.90
53208;DHT22;39093;52.788;6.940;2022-11-15T08:57:50;10.90;99.90
53208;DHT22;39093;52.788;6.940;2022-11-15T09:00:17;11.00;99.90
53208;DHT22;39093;52.788;6.940;2022-11-15T09:02:46;11.00;99.90
53208;DHT22;39093;52.788;6.940;2022-11-15T09:05:13;10.90;99.90
53208;DHT22;39093;52.788;6.940;2022-11-15T09:07:41;11.00;99.90
53208;DHT22;39093;52.788;6.940;2022-11-15T09:10:09;11.00;99.90
53208;DHT22;39093;52.788;6.940;2022-11-15T09:12:36;11.00;99.90
53208;DHT22;39093;52.788;6.940;2022-11-15T09:15:04;11.10;99.90
53208;DHT22;39093;52.788;6.940;2022-11-15T09:17:31;11.00;99.90
53208;DHT22;39093;52.788;6.940;2022-11-15T09:19:58;11.10;99.90
53208;DHT22;39093;52.788;6.940;2022-11-15T09:22:25;11.10;99.90
53208;DHT22;39093;52.788;6.940;2022-11-15T09:24:52;11.10;99.90
53208;DHT22;39093;52.788;6.940;2022-11-15T09:27:18;11.20;99.90
53208;DHT22;39093;52.788;6.940;2022-11-15T09:29:45;11.20;99.90
53208;DHT22;39093;52.788;6.940;2022-11-15T09:32:12;11.20;99.90
53208;DHT22;39093;52.788;6.940;2022-11-15T09:34:39;11.20;99.90
53208;DHT22;39093;52.788;6.940;2022-11-15T09:37:06;11.30;99.90
53208;DHT22;39093;52.788;6.940;2022-11-15T09:39:33;11.20;99.90
53208;DHT22;39093;52.788;6.940;2022-11-15T09:50:39;11.30;99.90
53208;DHT22;39093;52.788;6.940;2022-11-15T09:53:17;11.30;99.90
53208;DHT22;39093;52.788;6.940;2022-11-15T09:56:26;11.30;99.90
53208;DHT22;39093;52.788;6.940;2022-11-15T09:59:01;11.30;99.90
53208;DHT22;39093;52.788;6.940;2022-11-15T10:01:56;11.30;99.90
53208;DHT22;39093;52.788;6.940;2022-11-15T10:04:27;11.30;99.90
53208;DHT22;39093;52.788;6.940;2022-11-15T10:07:18;11.30;99.90
53208;DHT22;39093;52.788;6.940;2022-11-15T10:09:51;11.30;99.90
53208;DHT22;39093;52.788;6.940;2022-11-15T10:12:19;11.30;99.90
53208;DHT22;39093;52.788;6.940;2022-11-15T10:14:48;11.40;99.90
53208;DHT22;39093;52.788;6.940;2022-11-15T10:20:48;11.40;99.90
53208;DHT22;39093;52.788;6.940;2022-11-15T10:23:20;11.50;99.90
53208;DHT22;39093;52.788;6.940;2022-11-15T10:25:48;11.50;99.90
53208;DHT22;39093;52.788;6.940;2022-11-15T10:28:30;11.50;99.90
53208;DHT22;39093;52.788;6.940;2022-11-15T10:30:59;11.50;99.90
53208;DHT22;39093;52.788;6.940;2022-11-15T10:33:36;11.60;99.90
53208;DHT22;39093;52.788;6.940;2022-11-15T10:41:36;11.70;99.90
53208;DHT22;39093;52.788;6.940;2022-11-15T10:46:35;11.70;99.90
53208;DHT22;39093;52.788;6.940;2022-11-15T10:49:21;11.70;99.90
53208;DHT22;39093;52.788;6.940;2022-11-15T10:51:51;11.70;99.90
53208;DHT22;39093;52.788;6.940;2022-11-15T10:57:11;11.70;99.90
53208;DHT22;39093;52.788;6.940;2022-11-15T10:59:44;11.80;99.90
53208;DHT22;39093;52.788;6.940;2022-11-15T11:02:36;11.80;99.90
53208;DHT22;39093;52.788;6.940;2022-11-15T11:05:27;11.80;99.90
53208;DHT22;39093;52.788;6.940;2022-11-15T11:08:21;11.80;99.90
53208;DHT22;39093;52.788;6.940;2022-11-15T11:10:57;11.90;99.90
53208;DHT22;39093;52.788;6.940;2022-11-15T11:13:34;12.10;99.90
53208;DHT22;39093;52.788;6.940;2022-11-15T11:30:04;12.40;99.90
53208;DHT22;39093;52.788;6.940;2022-11-15T11:46:18;12.70;99.90
53208;DHT22;39093;52.788;6.940;2022-11-15T11:49:09;12.70;99.90
53208;DHT22;39093;52.788;6.940;2022-11-15T11:51:43;12.70;99.90
53208;DHT22;39093;52.788;6.940;2022-11-15T11:54:14;12.60;99.90
53208;DHT22;39093;52.788;6.940;2022-11-15T11:56:44;12.70;99.90
53208;DHT22;39093;52.788;6.940;2022-11-15T12:02:24;12.70;99.90
53208;DHT22;39093;52.788;6.940;2022-11-15T12:05:01;12.80;99.90
53208;DHT22;39093;52.788;6.940;2022-11-15T12:07:33;12.90;99.90
53208;DHT22;39093;52.788;6.940;2022-11-15T12:10:23;12.90;99.90
53208;DHT22;39093;52.788;6.940;2022-11-15T12:12:58;13.00;99.90
53208;DHT22;39093;52.788;6.940;2022-11-15T12:15:32;12.90;99.90
53208;DHT22;39093;52.788;6.940;2022-11-15T12:18:02;12.90;99.90
53208;DHT22;39093;52.788;6.940;2022-11-15T12:20:34;12.80;99.90
53208;DHT22;39093;52.788;6.940;2022-11-15T12:23:13;12.80;99.90
53208;DHT22;39093;52.788;6.940;2022-11-15T12:25:54;12.80;99.90
53208;DHT22;39093;52.788;6.940;2022-11-15T12:28:48;12.80;99.90
53208;DHT22;39093;52.788;6.940;2022-11-15T12:31:45;12.80;99.90
53208;DHT22;39093;52.788;6.940;2022-11-15T12:36:51;12.80;99.90
53208;DHT22;39093;52.788;6.940;2022-11-15T12:39:18;12.80;99.90
53208;DHT22;39093;52.788;6.940;2022-11-15T12:49:43;13.00;99.90
53208;DHT22;39093;52.788;6.940;2022-11-15T12:52:10;13.00;99.90
53208;DHT22;39093;52.788;6.940;2022-11-15T12:59:57;13.10;99.90
53208;DHT22;39093;52.788;6.940;2022-11-15T13:02:33;13.10;99.90
53208;DHT22;39093;52.788;6.940;2022-11-15T13:17:44;13.10;99.90
53208;DHT22;39093;52.788;6.940;2022-11-15T13:22:43;13.00;99.90
53208;DHT22;39093;52.788;6.940;2022-11-15T13:25:48;13.00;99.90
53208;DHT22;39093;52.788;6.940;2022-11-15T13:28:36;13.00;99.90
53208;DHT22;39093;52.788;6.940;2022-11-15T13:33:50;12.90;99.90
53208;DHT22;39093;52.788;6.940;2022-11-15T13:36:22;12.90;99.90
53208;DHT22;39093;52.788;6.940;2022-11-15T13:38:58;12.90;99.90
53208;DHT22;39093;52.788;6.940;2022-11-15T13:41:31;12.90;99.90
53208;DHT22;39093;52.788;6.940;2022-11-15T13:44:00;12.80;99.90
53208;DHT22;39093;52.788;6.940;2022-11-15T13:46:29;12.90;99.90
53208;DHT22;39093;52.788;6.940;2022-11-15T13:49:05;12.90;99.90
53208;DHT22;39093;52.788;6.940;2022-11-15T13:56:47;12.80;99.90
53208;DHT22;39093;52.788;6.940;2022-11-15T13:59:25;12.90;99.90
53208;DHT22;39093;52.788;6.940;2022-11-15T14:01:54;12.90;99.90
53208;DHT22;39093;52.788;6.940;2022-11-15T14:04:23;12.90;99.90
53208;DHT22;39093;52.788;6.940;2022-11-15T14:06:58;12.80;99.90
53208;DHT22;39093;52.788;6.940;2022-11-15T14:09:40;12.90;99.90
53208;DHT22;39093;52.788;6.940;2022-11-15T14:14:53;12.80;99.90
53208;DHT22;39093;52.788;6.940;2022-11-15T14:17:32;12.80;99.90
53208;DHT22;39093;52.788;6.940;2022-11-15T14:20:00;12.70;99.90
53208;DHT22;39093;52.788;6.940;2022-11-15T14:22:30;12.70;99.90
53208;DHT22;39093;52.788;6.940;2022-11-15T14:25:15;12.70;99.90
53208;DHT22;39093;52.788;6.940;2022-11-15T14:27:44;12.60;99.90
53208;DHT22;39093;52.788;6.940;2022-11-15T14:30:18;12.60;99.90
53208;DHT22;39093;52.788;6.940;2022-11-15T14:32:49;12.60;99.90
53208;DHT22;39093;52.788;6.940;2022-11-15T14:35:21;12.50;99.90
53208;DHT22;39093;52.788;6.940;2022-11-15T14:37:49;12.50;99.90
53208;DHT22;39093;52.788;6.940;2022-11-15T14:40:20;12.50;99.90
53208;DHT22;39093;52.788;6.940;2022-11-15T14:42:49;12.40;99.90
53208;DHT22;39093;52.788;6.940;2022-11-15T14:45:21;12.40;99.90
53208;DHT22;39093;52.788;6.940;2022-11-15T14:47:48;12.30;99.90
53208;DHT22;39093;52.788;6.940;2022-11-15T14:50:18;12.30;99.90
53208;DHT22;39093;52.788;6.940;2022-11-15T14:52:45;12.20;99.90
53208;DHT22;39093;52.788;6.940;2022-11-15T14:55:28;12.20;99.90
53208;DHT22;39093;52.788;6.940;2022-11-15T14:57:55;12.10;99.90
53208;DHT22;39093;52.788;6.940;2022-11-15T15:00:22;12.10;99.90
53208;DHT22;39093;52.788;6.940;2022-11-15T15:02:53;12.10;99.90
53208;DHT22;39093;52.788;6.940;2022-11-15T15:05:43;12.00;99.90
53208;DHT22;39093;52.788;6.940;2022-11-15T15:08:10;11.90;99.90
53208;DHT22;39093;52.788;6.940;2022-11-15T15:10:40;11.90;99.90
53208;DHT22;39093;52.788;6.940;2022-11-15T15:13:28;11.90;99.90
53208;DHT22;39093;52.788;6.940;2022-11-15T15:15:56;11.80;99.90
53208;DHT22;39093;52.788;6.940;2022-11-15T15:18:23;11.70;99.90
53208;DHT22;39093;52.788;6.940;2022-11-15T15:20:56;11.80;99.90
53208;DHT22;39093;52.788;6.940;2022-11-15T15:23:24;11.70;99.90
53208;DHT22;39093;52.788;6.940;2022-11-15T15:25:53;11.70;99.90
53208;DHT22;39093;52.788;6.940;2022-11-15T15:28:20;11.60;99.90
53208;DHT22;39093;52.788;6.940;2022-11-15T15:30:47;11.60;99.90
53208;DHT22;39093;52.788;6.940;2022-11-15T15:33:14;11.50;99.90
53208;DHT22;39093;52.788;6.940;2022-11-15T15:35:41;11.50;99.90
53208;DHT22;39093;52.788;6.940;2022-11-15T15:38:11;11.40;99.90
53208;DHT22;39093;52.788;6.940;2022-11-15T15:40:38;11.30;99.90
53208;DHT22;39093;52.788;6.940;2022-11-15T15:43:05;11.30;99.90
53208;DHT22;39093;52.788;6.940;2022-11-15T15:45:37;11.30;99.90
53208;DHT22;39093;52.788;6.940;2022-11-15T15:48:07;11.20;99.90
53208;DHT22;39093;52.788;6.940;2022-11-15T15:50:35;11.20;99.90
53208;DHT22;39093;52.788;6.940;2022-11-15T15:53:03;11.20;99.90
53208;DHT22;39093;52.788;6.940;2022-11-15T15:55:30;11.10;99.90
53208;DHT22;39093;52.788;6.940;2022-11-15T15:57:57;11.10;99.90
53208;DHT22;39093;52.788;6.940;2022-11-15T16:00:25;11.00;99.90
53208;DHT22;39093;52.788;6.940;2022-11-15T16:02:52;11.00;99.90
53208;DHT22;39093;52.788;6.940;2022-11-15T16:05:21;11.00;99.90
53208;DHT22;39093;52.788;6.940;2022-11-15T16:07:48;11.00;99.90
53208;DHT22;39093;52.788;6.940;2022-11-15T16:12:42;10.90;99.90
53208;DHT22;39093;52.788;6.940;2022-11-15T16:15:09;10.90;99.90
53208;DHT22;39093;52.788;6.940;2022-11-15T16:17:39;10.90;99.90
53208;DHT22;39093;52.788;6.940;2022-11-15T16:20:08;10.90;99.90
53208;DHT22;39093;52.788;6.940;2022-11-15T16:22:42;10.90;99.90
53208;DHT22;39093;52.788;6.940;2022-11-15T16:25:09;10.90;99.90
53208;DHT22;39093;52.788;6.940;2022-11-15T16:27:35;10.90;99.90
53208;DHT22;39093;52.788;6.940;2022-11-15T16:30:07;10.90;99.90
53208;DHT22;39093;52.788;6.940;2022-11-15T16:32:37;10.80;99.90
53208;DHT22;39093;52.788;6.940;2022-11-15T16:35:04;10.80;99.90
53208;DHT22;39093;52.788;6.940;2022-11-15T16:37:31;10.80;99.90
53208;DHT22;39093;52.788;6.940;2022-11-15T16:39:58;10.80;99.90
53208;DHT22;39093;52.788;6.940;2022-11-15T16:42:26;10.80;99.90
53208;DHT22;39093;52.788;6.940;2022-11-15T16:44:53;10.80;99.90
53208;DHT22;39093;52.788;6.940;2022-11-15T16:47:20;10.80;99.90
53208;DHT22;39093;52.788;6.940;2022-11-15T16:49:48;10.80;99.90
53208;DHT22;39093;52.788;6.940;2022-11-15T16:52:15;10.70;99.90
53208;DHT22;39093;52.788;6.940;2022-11-15T16:54:47;10.70;99.90
53208;DHT22;39093;52.788;6.940;2022-11-15T16:57:13;10.90;99.90
53208;DHT22;39093;52.788;6.940;2022-11-15T16:59:42;10.70;99.90
53208;DHT22;39093;52.788;6.940;2022-11-15T17:02:12;10.70;99.90
53208;DHT22;39093;52.788;6.940;2022-11-15T17:04:39;10.70;99.90
53208;DHT22;39093;52.788;6.940;2022-11-15T17:07:07;10.60;99.90
53208;DHT22;39093;52.788;6.940;2022-11-15T17:09:34;10.70;99.90
53208;DHT22;39093;52.788;6.940;2022-11-15T17:12:01;10.60;99.90
53208;DHT22;39093;52.788;6.940;2022-11-15T17:14:28;10.60;99.90
53208;DHT22;39093;52.788;6.940;2022-11-15T17:16:55;10.60;99.90
53208;DHT22;39093;52.788;6.940;2022-11-15T17:19:22;10.60;99.90
53208;DHT22;39093;52.788;6.940;2022-11-15T17:21:49;10.70;99.90
53208;DHT22;39093;52.788;6.940;2022-11-15T17:24:16;10.70;99.90
53208;DHT22;39093;52.788;6.940;2022-11-15T17:26:43;10.60;99.90
53208;DHT22;39093;52.788;6.940;2022-11-15T17:29:10;10.60;99.90
53208;DHT22;39093;52.788;6.940;2022-11-15T17:31:37;10.70;99.90
53208;DHT22;39093;52.788;6.940;2022-11-15T17:34:05;10.70;99.90
53208;DHT22;39093;52.788;6.940;2022-11-15T17:36:33;10.70;99.90
53208;DHT22;39093;52.788;6.940;2022-11-15T17:39:00;10.70;99.90
53208;DHT22;39093;52.788;6.940;2022-11-15T17:41:28;10.70;99.90
53208;DHT22;39093;52.788;6.940;2022-11-15T17:43:56;10.60;99.90
53208;DHT22;39093;52.788;6.940;2022-11-15T17:46:24;10.60;99.90
53208;DHT22;39093;52.788;6.940;2022-11-15T17:48:51;10.60;99.90
53208;DHT22;39093;52.788;6.940;2022-11-15T17:51:18;10.60;99.90
53208;DHT22;39093;52.788;6.940;2022-11-15T17:53:46;10.60;99.90
53208;DHT22;39093;52.788;6.940;2022-11-15T17:56:17;10.60;99.90
53208;DHT22;39093;52.788;6.940;2022-11-15T17:58:50;10.70;99.90
53208;DHT22;39093;52.788;6.940;2022-11-15T18:03:45;10.60;99.90